createdAt,value
2023-02-03T00:01:42.588Z,33.58
2023-02-03T00:04:09.915Z,32.42
2023-02-03T00:06:36.400Z,33.47
2023-02-03T00:09:02.875Z,32.78
2023-02-03T00:11:30.381Z,33.65
2023-02-03T00:13:56.873Z,32.65
2023-02-03T00:16:23.361Z,31.70
2023-02-03T00:18:49.773Z,30.45
2023-02-03T00:21:16.284Z,31.17
2023-02-03T00:23:42.953Z,29.70
2023-02-03T00:26:11.547Z,30.23
2023-02-03T00:28:38.007Z,28.77
2023-02-03T00:31:04.759Z,28.60
2023-02-03T00:33:31.151Z,28.88
2023-02-03T00:35:57.572Z,27.50
2023-02-03T00:38:27.639Z,28.27
2023-02-03T00:40:54.465Z,27.08
2023-02-03T00:43:21.244Z,26.75
2023-02-03T00:45:48.089Z,24.75
2023-02-03T00:48:14.508Z,24.95
2023-02-03T00:50:40.887Z,24.83
2023-02-03T00:53:07.452Z,24.98
2023-02-03T00:55:33.865Z,24.25
2023-02-03T00:58:00.239Z,25.20
2023-02-03T01:00:26.914Z,25.55
2023-02-03T01:02:53.490Z,25.52
2023-02-03T01:05:19.890Z,23.67
2023-02-03T01:07:46.390Z,25.98
2023-02-03T01:10:14.703Z,24.88
2023-02-03T01:12:41.159Z,23.77
2023-02-03T01:15:08.020Z,24.85
2023-02-03T01:17:34.449Z,23.95
2023-02-03T01:20:00.966Z,24.80
2023-02-03T01:22:30.456Z,23.70
2023-02-03T01:24:57.049Z,24.23
2023-02-03T01:27:23.827Z,23.60
2023-02-03T01:29:50.356Z,25.02
2023-02-03T01:32:16.738Z,24.20
2023-02-03T01:34:43.168Z,23.88
2023-02-03T01:37:09.658Z,23.90
2023-02-03T01:39:36.121Z,21.58
2023-02-03T01:42:02.543Z,22.10
2023-02-03T01:44:58.435Z,24.30
2023-02-03T01:47:29.363Z,22.52
2023-02-03T01:50:04.118Z,22.58
2023-02-03T01:52:31.558Z,21.90
2023-02-03T01:54:59.404Z,22.40
2023-02-03T01:57:59.558Z,22.20
2023-02-03T02:00:26.328Z,22.52
2023-02-03T02:02:53.743Z,21.58
2023-02-03T02:05:29.386Z,21.92
2023-02-03T02:07:56.876Z,21.85
2023-02-03T02:10:23.349Z,21.52
2023-02-03T02:12:49.960Z,22.23
2023-02-03T02:15:16.541Z,21.88
2023-02-03T02:18:20.511Z,22.10
2023-02-03T02:21:01.869Z,21.33
2023-02-03T02:23:45.109Z,21.20
2023-02-03T02:26:32.197Z,22.85
2023-02-03T02:29:20.081Z,21.63
2023-02-03T02:32:14.397Z,23.23
2023-02-03T02:34:49.335Z,23.55
2023-02-03T02:37:26.749Z,21.60
2023-02-03T02:39:58.089Z,21.30
2023-02-03T02:42:39.719Z,21.48
2023-02-03T02:45:19.448Z,19.85
2023-02-03T02:47:45.911Z,21.30
2023-02-03T02:50:20.973Z,20.15
2023-02-03T02:52:48.449Z,19.80
2023-02-03T02:55:17.617Z,19.73
2023-02-03T02:57:44.622Z,19.88
2023-02-03T03:00:12.267Z,18.75
2023-02-03T03:02:38.685Z,18.30
2023-02-03T03:05:06.747Z,18.70
2023-02-03T03:07:39.699Z,18.45
2023-02-03T03:10:11.453Z,19.45
2023-02-03T03:12:42.913Z,17.77
2023-02-03T03:15:12.617Z,18.80
2023-02-03T03:17:44.526Z,17.52
2023-02-03T03:20:14.858Z,18.42
2023-02-03T03:22:46.792Z,18.33
2023-02-03T03:25:21.747Z,18.00
2023-02-03T03:27:56.463Z,17.88
2023-02-03T03:30:29.684Z,16.90
2023-02-03T03:32:56.453Z,16.70
2023-02-03T03:35:23.377Z,17.70
2023-02-03T03:37:59.783Z,16.63
2023-02-03T03:40:38.461Z,16.52
2023-02-03T03:43:15.621Z,16.65
2023-02-03T03:46:02.687Z,15.48
2023-02-03T03:48:53.197Z,16.15
2023-02-03T03:51:26.983Z,15.13
2023-02-03T03:53:54.101Z,15.38
2023-02-03T03:56:25.653Z,15.93
2023-02-03T03:58:54.768Z,16.10
2023-02-03T04:01:23.324Z,15.60
2023-02-03T04:03:56.799Z,14.75
2023-02-03T04:06:23.746Z,14.45
2023-02-03T04:08:50.246Z,14.07
2023-02-03T04:11:36.657Z,14.32
2023-02-03T04:14:03.413Z,13.68
2023-02-03T04:16:29.838Z,14.25
2023-02-03T04:18:57.249Z,13.32
2023-02-03T04:21:23.718Z,13.13
2023-02-03T04:23:51.354Z,12.05
2023-02-03T04:26:18.136Z,12.80
2023-02-03T04:28:44.909Z,12.18
2023-02-03T04:31:11.415Z,11.23
2023-02-03T04:33:37.945Z,12.32
2023-02-03T04:36:04.539Z,11.43
2023-02-03T04:38:30.985Z,11.07
2023-02-03T04:40:57.400Z,10.85
2023-02-03T04:43:23.798Z,10.77
2023-02-03T04:45:50.460Z,10.63
2023-02-03T04:48:16.926Z,10.60
2023-02-03T04:50:43.341Z,9.77
2023-02-03T04:53:09.713Z,9.55
2023-02-03T04:55:36.189Z,10.10
2023-02-03T04:58:02.711Z,9.13
2023-02-03T05:00:29.944Z,9.57
2023-02-03T05:02:56.631Z,8.65
2023-02-03T05:05:23.040Z,9.48
2023-02-03T05:07:49.469Z,9.02
2023-02-03T05:10:15.926Z,9.02
2023-02-03T05:12:45.267Z,8.48
2023-02-03T05:15:11.645Z,8.27
2023-02-03T05:17:39.940Z,7.93
2023-02-03T05:20:07.551Z,8.52
2023-02-03T05:22:35.490Z,8.45
2023-02-03T05:25:02.881Z,8.07
2023-02-03T05:27:29.336Z,8.20
2023-02-03T05:29:55.942Z,7.75
2023-02-03T05:32:22.405Z,7.60
2023-02-03T05:34:48.778Z,7.10
2023-02-03T05:37:15.183Z,6.93
2023-02-03T05:39:41.556Z,7.20
2023-02-03T05:42:08.059Z,7.20
2023-02-03T05:44:34.446Z,6.38
2023-02-03T05:47:00.876Z,6.65
2023-02-03T05:49:27.345Z,7.10
2023-02-03T05:51:55.010Z,7.13
2023-02-03T05:54:21.858Z,6.82
2023-02-03T05:56:48.323Z,5.88
2023-02-03T05:59:14.737Z,7.03
2023-02-03T06:01:41.258Z,7.53
2023-02-03T06:04:07.898Z,6.93
2023-02-03T06:06:34.590Z,7.18
2023-02-03T06:09:06.560Z,7.35
2023-02-03T06:11:33.586Z,7.03
2023-02-03T06:14:00.425Z,7.85
2023-02-03T06:16:27.838Z,8.02
2023-02-03T06:18:55.501Z,7.80
2023-02-03T06:21:22.422Z,8.95
2023-02-03T06:23:48.806Z,9.00
2023-02-03T06:26:15.547Z,9.40
2023-02-03T06:28:42.028Z,9.32
2023-02-03T06:31:08.610Z,10.70
2023-02-03T06:33:35.382Z,9.88
2023-02-03T06:36:01.925Z,9.80
2023-02-03T06:38:28.362Z,9.95
2023-02-03T06:40:54.758Z,11.30
2023-02-03T06:43:21.287Z,11.20
2023-02-03T06:45:47.979Z,11.35
2023-02-03T06:48:14.683Z,10.68
2023-02-03T06:50:41.364Z,11.98
2023-02-03T06:53:07.753Z,10.90
2023-02-03T06:55:34.148Z,10.65
2023-02-03T06:58:00.596Z,12.32
2023-02-03T07:00:27.336Z,11.57
2023-02-03T07:02:55.626Z,11.80
2023-02-03T07:05:23.017Z,12.40
2023-02-03T07:07:50.338Z,12.32
2023-02-03T07:10:17.241Z,12.82
2023-02-03T07:12:44.191Z,12.52
2023-02-03T07:15:11.588Z,12.98
2023-02-03T07:17:38.055Z,13.10
2023-02-03T07:20:05.184Z,12.88
2023-02-03T07:22:31.644Z,13.80
2023-02-03T07:24:58.058Z,14.52
2023-02-03T07:27:24.436Z,13.48
2023-02-03T07:29:50.932Z,14.43
2023-02-03T07:32:19.637Z,15.20
2023-02-03T07:34:46.179Z,14.60
2023-02-03T07:37:12.635Z,14.35
2023-02-03T07:39:39.076Z,14.82
2023-02-03T07:42:08.527Z,15.55
2023-02-03T07:44:35.034Z,14.90
2023-02-03T07:47:01.457Z,15.27
2023-02-03T07:49:27.879Z,15.13
2023-02-03T07:51:54.309Z,15.55
2023-02-03T07:54:20.707Z,15.50
2023-02-03T07:56:47.168Z,16.33
2023-02-03T07:59:13.591Z,15.73
2023-02-03T08:01:40.010Z,16.35
2023-02-03T08:04:06.545Z,16.30
2023-02-03T08:06:33.274Z,16.60
2023-02-03T08:08:59.821Z,17.17
2023-02-03T08:11:26.239Z,17.60
2023-02-03T08:13:52.718Z,16.02
2023-02-03T08:16:19.178Z,17.52
2023-02-03T08:18:45.639Z,17.17
2023-02-03T08:21:12.105Z,16.23
2023-02-03T08:23:38.770Z,15.43
2023-02-03T08:26:05.254Z,15.15
2023-02-03T08:28:31.833Z,14.15
2023-02-03T08:30:58.282Z,13.77
2023-02-03T08:33:24.818Z,13.10
2023-02-03T08:35:51.252Z,12.30
2023-02-03T08:38:17.855Z,12.45
2023-02-03T08:40:44.359Z,12.40
2023-02-03T08:43:11.217Z,11.60
2023-02-03T08:45:40.317Z,11.88
2023-02-03T08:48:06.896Z,12.23
2023-02-03T08:50:33.280Z,12.13
2023-02-03T08:52:59.770Z,12.35
2023-02-03T08:55:26.319Z,12.68
2023-02-03T08:57:52.789Z,11.93
2023-02-03T09:00:19.708Z,12.93
2023-02-03T09:02:46.175Z,11.98
2023-02-03T09:05:12.859Z,11.40
2023-02-03T09:07:39.457Z,11.43
2023-02-03T09:10:05.994Z,11.52
2023-02-03T09:12:32.497Z,11.82
2023-02-03T09:14:58.882Z,11.80
2023-02-03T09:17:25.317Z,11.98
2023-02-03T09:19:52.008Z,12.75
2023-02-03T09:22:18.543Z,11.38
2023-02-03T09:24:45.114Z,11.80
2023-02-03T09:27:11.740Z,11.48
2023-02-03T09:29:38.131Z,11.95
2023-02-03T09:32:08.808Z,12.07
2023-02-03T09:34:35.340Z,11.88
2023-02-03T09:37:01.824Z,11.85
2023-02-03T09:39:28.295Z,11.13
2023-02-03T09:42:25.760Z,12.10
2023-02-03T09:45:18.347Z,11.60
2023-02-03T09:47:45.367Z,11.50
2023-02-03T09:50:20.798Z,12.52
2023-02-03T09:52:47.854Z,11.70
2023-02-03T09:55:41.579Z,11.20
2023-02-03T09:58:14.803Z,11.02
2023-02-03T10:00:48.241Z,11.48
2023-02-03T10:03:32.962Z,12.63
2023-02-03T10:06:08.348Z,12.15
2023-02-03T10:08:58.351Z,12.82
2023-02-03T10:11:33.658Z,13.00
2023-02-03T10:14:13.368Z,11.57
2023-02-03T10:17:00.079Z,11.23
2023-02-03T10:19:51.213Z,10.57
2023-02-03T10:22:21.214Z,9.88
2023-02-03T10:24:47.628Z,10.52
2023-02-03T10:27:20.292Z,11.65
2023-02-03T10:29:51.881Z,10.45
2023-02-03T10:32:18.303Z,10.77
2023-02-03T10:34:47.503Z,10.73
2023-02-03T10:37:16.859Z,10.73
2023-02-03T10:39:47.632Z,10.18
2023-02-03T10:42:14.623Z,8.45
2023-02-03T10:44:47.446Z,9.10
2023-02-03T10:47:34.599Z,5.40
2023-02-03T10:50:16.072Z,6.07
2023-02-03T10:52:42.489Z,4.68
2023-02-03T10:55:30.981Z,4.53
2023-02-03T10:57:57.935Z,4.55
2023-02-03T11:00:31.301Z,4.15
2023-02-03T11:03:06.628Z,3.80
2023-02-03T11:05:33.389Z,4.20
2023-02-03T11:08:00.246Z,6.43
2023-02-03T11:10:39.041Z,4.22
2023-02-03T11:13:17.273Z,3.90
2023-02-03T11:15:47.570Z,4.10
2023-02-03T11:18:40.423Z,3.33
2023-02-03T11:21:09.035Z,4.00
2023-02-03T11:23:35.686Z,3.83
2023-02-03T11:26:14.313Z,3.40
2023-02-03T11:28:47.623Z,3.42
2023-02-03T11:31:20.262Z,3.70
2023-02-03T11:33:48.689Z,3.22
2023-02-03T11:36:15.281Z,3.95
2023-02-03T11:38:42.770Z,4.30
2023-02-03T11:41:16.342Z,4.05
2023-02-03T11:43:42.927Z,4.07
2023-02-03T11:46:09.811Z,6.25
2023-02-03T11:48:37.798Z,5.13
2023-02-03T11:51:28.625Z,4.93
2023-02-03T11:54:04.847Z,5.35
2023-02-03T11:56:58.806Z,6.28
2023-02-03T11:59:37.031Z,5.60
2023-02-03T12:02:20.022Z,5.72
2023-02-03T12:05:29.328Z,5.53
2023-02-03T12:07:58.407Z,4.88
2023-02-03T12:11:02.540Z,5.70
2023-02-03T12:13:36.120Z,4.72
2023-02-03T12:16:28.171Z,5.10
2023-02-03T12:19:13.450Z,5.25
2023-02-03T12:21:45.006Z,5.10
2023-02-03T12:24:26.447Z,4.97
2023-02-03T12:27:03.348Z,6.13
2023-02-03T12:29:40.105Z,5.75
2023-02-03T12:32:21.346Z,5.13
2023-02-03T12:34:54.969Z,6.03
2023-02-03T12:37:44.092Z,4.50
2023-02-03T12:40:36.106Z,5.47
2023-02-03T12:43:22.113Z,4.57
2023-02-03T12:45:58.242Z,5.20
2023-02-03T12:48:42.987Z,4.50
2023-02-03T12:51:16.735Z,4.95
2023-02-03T12:53:50.233Z,4.78
2023-02-03T12:56:23.351Z,5.05
2023-02-03T12:58:52.721Z,4.60
2023-02-03T13:01:23.338Z,5.40
2023-02-03T13:04:22.256Z,5.45
2023-02-03T13:06:58.638Z,5.47
2023-02-03T13:09:38.765Z,4.82
2023-02-03T13:12:25.175Z,4.55
2023-02-03T13:15:12.372Z,5.10
2023-02-03T13:18:16.370Z,4.78
2023-02-03T13:20:45.361Z,4.82
2023-02-03T13:23:14.207Z,5.20
2023-02-03T13:26:18.220Z,5.15
2023-02-03T13:29:03.487Z,5.30
2023-02-03T13:31:36.036Z,5.13
2023-02-03T13:34:32.534Z,5.53
2023-02-03T13:37:11.186Z,4.82
2023-02-03T13:39:46.886Z,4.35
2023-02-03T13:42:16.284Z,5.65
2023-02-03T13:44:44.801Z,5.28
2023-02-03T13:47:17.308Z,4.82
2023-02-03T13:52:31.746Z,5.10
2023-02-03T13:54:58.761Z,5.22
2023-02-03T13:57:34.673Z,6.95
2023-02-03T14:00:03.414Z,4.82
2023-02-03T14:02:41.353Z,5.95
2023-02-03T14:05:44.290Z,5.93
2023-02-03T14:08:26.144Z,6.35
2023-02-03T14:11:31.641Z,6.15
2023-02-03T14:14:20.334Z,7.55
2023-02-03T14:16:55.244Z,5.25
2023-02-03T14:19:21.607Z,4.53
2023-02-03T14:21:51.819Z,6.15
2023-02-03T14:24:18.823Z,6.30
2023-02-03T14:26:47.633Z,6.15
2023-02-03T14:29:32.450Z,7.47
2023-02-03T14:32:00.405Z,5.78
2023-02-03T14:34:35.355Z,6.15
2023-02-03T14:37:29.629Z,5.82
2023-02-03T14:40:11.071Z,6.07
2023-02-03T14:43:04.805Z,6.37
2023-02-03T14:45:57.316Z,6.95
2023-02-03T14:49:01.917Z,6.07
2023-02-03T14:51:52.280Z,7.05
2023-02-03T14:54:34.242Z,6.93
2023-02-03T14:57:35.801Z,8.52
2023-02-03T15:00:07.348Z,9.75
2023-02-03T15:02:34.848Z,8.43
2023-02-03T15:05:23.849Z,8.52
2023-02-03T15:07:53.267Z,10.80
2023-02-03T15:10:22.008Z,7.93
2023-02-03T15:12:53.204Z,9.60
2023-02-03T15:15:29.044Z,6.13
2023-02-03T15:18:00.305Z,8.57
2023-02-03T15:20:38.744Z,7.78
2023-02-03T15:23:18.897Z,6.65
2023-02-03T15:25:45.452Z,9.52
2023-02-03T15:28:13.383Z,8.23
2023-02-03T15:30:40.661Z,10.10
2023-02-03T15:33:20.379Z,9.00
2023-02-03T15:35:49.448Z,10.07
2023-02-03T15:38:20.714Z,5.85
2023-02-03T15:40:54.540Z,5.03
2023-02-03T15:43:32.763Z,5.57
2023-02-03T15:46:06.995Z,6.50
2023-02-03T15:48:39.250Z,5.15
2023-02-03T15:51:51.855Z,5.88
2023-02-03T15:54:29.904Z,5.40
2023-02-03T15:57:00.920Z,7.10
2023-02-03T15:59:54.865Z,5.78
2023-02-03T16:02:30.386Z,5.47
2023-02-03T16:04:56.968Z,6.20
2023-02-03T16:07:26.256Z,6.28
2023-02-03T16:09:53.956Z,5.65
2023-02-03T16:12:24.440Z,5.45
2023-02-03T16:14:51.977Z,6.55
2023-02-03T16:17:24.623Z,7.60
2023-02-03T16:19:52.024Z,7.78
2023-02-03T16:22:34.014Z,7.60
2023-02-03T16:25:20.360Z,5.43
2023-02-03T16:28:32.474Z,5.38
2023-02-03T16:31:20.306Z,5.90
2023-02-03T16:34:06.875Z,6.95
2023-02-03T16:36:52.006Z,5.80
2023-02-03T16:39:37.198Z,6.95
2023-02-03T16:42:32.453Z,5.80
2023-02-03T16:45:17.698Z,5.43
2023-02-03T16:48:04.301Z,6.75
2023-02-03T16:50:49.983Z,10.23
2023-02-03T16:53:19.652Z,6.13
2023-02-03T16:55:46.993Z,5.40
2023-02-03T16:58:13.495Z,5.05
2023-02-03T17:00:41.893Z,6.13
2023-02-03T17:03:11.167Z,6.25
2023-02-03T17:05:38.701Z,5.75
2023-02-03T17:08:05.955Z,6.25
2023-02-03T17:10:37.688Z,7.13
2023-02-03T17:13:04.230Z,4.80
2023-02-03T17:15:31.017Z,6.07
2023-02-03T17:18:01.177Z,6.95
2023-02-03T17:20:27.568Z,5.40
2023-02-03T17:22:54.781Z,5.28
2023-02-03T17:25:21.774Z,4.80
2023-02-03T17:27:48.226Z,4.63
2023-02-03T17:30:15.141Z,5.07
2023-02-03T17:32:41.502Z,5.55
2023-02-03T17:35:08.050Z,4.97
2023-02-03T17:37:35.036Z,4.10
2023-02-03T17:54:06.512Z,5.00
2023-02-03T17:56:35.483Z,4.97
2023-02-03T17:59:03.821Z,4.25
2023-02-03T18:01:31.655Z,4.10
2023-02-03T18:04:00.504Z,4.57
2023-02-03T18:06:28.520Z,5.13
2023-02-03T18:09:01.011Z,5.93
2023-02-03T18:13:54.210Z,3.78
2023-02-03T18:16:25.628Z,4.32
2023-02-03T18:18:52.995Z,4.93
2023-02-03T18:21:21.273Z,4.45
2023-02-03T18:23:49.527Z,3.95
2023-02-03T18:26:16.911Z,4.35
2023-02-03T18:28:43.288Z,4.57
2023-02-03T18:31:15.325Z,4.60
2023-02-03T18:33:43.611Z,4.28
2023-02-03T18:36:12.649Z,4.20
2023-02-03T18:38:40.574Z,4.88
2023-02-03T18:41:18.562Z,4.30
2023-02-03T18:43:45.295Z,4.68
2023-02-03T18:46:13.816Z,4.38
2023-02-03T18:48:40.270Z,4.72
2023-02-03T18:51:11.233Z,4.47
2023-02-03T18:53:38.311Z,5.53
2023-02-03T18:56:09.461Z,5.72
2023-02-03T18:58:39.035Z,6.03
2023-02-03T19:01:05.593Z,5.28
2023-02-03T19:03:32.103Z,5.53
2023-02-03T19:05:58.479Z,5.00
2023-02-03T19:08:24.902Z,4.68
2023-02-03T19:10:52.459Z,4.80
2023-02-03T19:13:19.743Z,4.10
2023-02-03T19:15:49.460Z,5.00
2023-02-03T19:18:15.915Z,4.55
2023-02-03T19:20:43.282Z,4.57
2023-02-03T19:23:11.495Z,5.53
2023-02-03T19:25:38.442Z,5.55
2023-02-03T19:28:05.904Z,5.28
2023-02-03T19:30:33.344Z,5.05
2023-02-03T19:32:59.759Z,4.70
2023-02-03T19:35:26.216Z,5.35
2023-02-03T19:37:53.708Z,5.43
2023-02-03T19:40:20.206Z,5.47
2023-02-03T19:42:46.715Z,5.85
2023-02-03T19:45:13.107Z,4.82
2023-02-03T19:47:39.495Z,4.38
2023-02-03T19:50:06.486Z,6.00
2023-02-03T19:52:37.883Z,5.80
2023-02-03T19:55:14.986Z,4.97
2023-02-03T19:57:54.988Z,5.53
2023-02-03T20:00:25.532Z,5.43
2023-02-03T20:02:51.891Z,5.75
2023-02-03T20:05:18.561Z,5.25
2023-02-03T20:07:44.974Z,5.30
2023-02-03T20:10:12.479Z,4.60
2023-02-03T20:12:38.857Z,4.38
2023-02-03T20:15:05.677Z,5.65
2023-02-03T20:17:32.078Z,5.45
2023-02-03T20:19:58.460Z,4.85
2023-02-03T20:22:24.873Z,5.07
2023-02-03T20:24:51.439Z,5.75
2023-02-03T20:27:17.918Z,5.40
2023-02-03T20:29:44.573Z,6.03
2023-02-03T20:32:11.481Z,6.15
2023-02-03T20:34:38.044Z,4.57
2023-02-03T20:37:06.554Z,5.40
2023-02-03T20:39:32.913Z,5.88
2023-02-03T20:41:59.281Z,5.55
2023-02-03T20:44:25.724Z,4.88
2023-02-03T20:46:52.887Z,4.82
2023-02-03T20:49:22.209Z,5.60
2023-02-03T20:51:48.582Z,5.05
2023-02-03T20:54:16.555Z,5.25
2023-02-03T20:56:43.574Z,5.50
2023-02-03T20:59:14.007Z,5.60
2023-02-03T21:02:16.436Z,5.65
2023-02-03T21:05:05.674Z,4.57
2023-02-03T21:07:42.218Z,6.22
2023-02-03T21:10:27.913Z,5.82
2023-02-03T21:12:55.965Z,4.22
2023-02-03T21:15:36.371Z,5.63
2023-02-03T21:18:46.157Z,5.32
2023-02-03T21:21:22.133Z,5.13
2023-02-03T21:23:55.332Z,5.95
2023-02-03T21:26:26.021Z,4.97
2023-02-03T21:28:54.348Z,5.50
2023-02-03T21:31:24.035Z,5.88
2023-02-03T21:33:51.628Z,5.72
2023-02-03T21:36:19.923Z,6.03
2023-02-03T21:38:54.984Z,5.45
2023-02-03T21:41:23.700Z,5.78
2023-02-03T21:43:55.230Z,5.43
2023-02-03T21:46:26.904Z,5.57
2023-02-03T21:48:57.919Z,5.90
2023-02-03T21:51:35.666Z,6.03
2023-02-03T21:54:18.628Z,5.40
2023-02-03T21:56:45.609Z,5.15
2023-02-03T21:59:19.351Z,5.63
2023-02-03T22:01:45.833Z,6.03
2023-02-03T22:04:12.212Z,5.43
2023-02-03T22:06:49.810Z,5.28
2023-02-03T22:09:18.961Z,6.00
2023-02-03T22:11:45.593Z,4.85
2023-02-03T22:14:13.508Z,6.20
2023-02-03T22:16:40.096Z,5.57
2023-02-03T22:19:06.515Z,6.35
2023-02-03T22:21:33.029Z,5.28
2023-02-03T22:24:03.608Z,5.10
2023-02-03T22:26:30.061Z,6.55
2023-02-03T22:28:56.565Z,5.15
2023-02-03T22:31:23.506Z,5.53
2023-02-03T22:33:50.020Z,5.35
2023-02-03T22:36:16.487Z,6.97
2023-02-03T22:38:43.120Z,5.97
2023-02-03T22:44:35.600Z,5.75
2023-02-03T22:50:08.284Z,6.18
2023-02-03T22:53:11.772Z,5.75
2023-02-03T22:55:46.501Z,6.15
2023-02-03T22:58:22.017Z,5.65
2023-02-03T23:00:59.526Z,5.47
2023-02-03T23:03:49.096Z,5.25
2023-02-03T23:06:17.028Z,4.93
2023-02-03T23:08:46.939Z,5.28
2023-02-03T23:11:32.279Z,4.82
2023-02-03T23:14:08.643Z,5.10
2023-02-03T23:16:37.691Z,6.00
2023-02-03T23:19:15.454Z,5.38
2023-02-03T23:21:46.098Z,5.78
2023-02-03T23:24:18.372Z,5.90
2023-02-03T23:26:47.560Z,5.20
2023-02-03T23:32:20.106Z,6.07
2023-02-03T23:35:05.171Z,5.15
2023-02-03T23:37:34.098Z,5.40
2023-02-03T23:40:07.349Z,5.13
2023-02-03T23:42:39.863Z,5.30
2023-02-03T23:48:01.278Z,6.80
2023-02-03T23:50:30.757Z,5.97
2023-02-03T23:52:58.603Z,6.07
2023-02-03T23:55:28.063Z,5.45
2023-02-03T23:57:54.622Z,5.65
